Time;durP1;ratioP1;P1;durP2;ratioP2;P2;SDS_P1;SDS_P2;PMS_P1;PMS_P2;Temp;Humidity;BMP_temperature;BMP_pressure;BME280_temperature;BME280_humidity;BME280_pressure;Samples;Min_cycle;Max_cycle;Signal;HPM_P1;HPM_P2
2023/10/27 00:01:44;;;;;;;18.40;4.55;;;14.50;99.90;;;;;;5091451;28;20032;-64
2023/10/27 00:04:10;;;;;;;19.25;5.00;;;14.40;99.90;;;;;;5091202;28;20039;-64
2023/10/27 00:06:35;;;;;;;16.95;4.20;;;14.50;99.90;;;;;;5091924;28;20017;-63
2023/10/27 00:09:02;;;;;;;21.17;5.45;;;14.70;99.90;;;;;;5091505;28;20031;-65
2023/10/27 00:11:27;;;;;;;25.92;5.53;;;14.90;99.90;;;;;;5091369;28;20073;-64
2023/10/27 00:13:54;;;;;;;23.15;5.35;;;15.20;99.90;;;;;;5091379;28;20032;-64
2023/10/27 00:16:20;;;;;;;23.75;6.25;;;15.30;99.90;;;;;;5091358;28;20552;-63
2023/10/27 00:18:45;;;;;;;20.40;5.25;;;15.30;99.90;;;;;;5090919;28;20024;-63
2023/10/27 00:21:11;;;;;;;23.42;5.63;;;15.50;99.90;;;;;;5091683;28;20028;-64
2023/10/27 00:23:37;;;;;;;25.40;5.97;;;15.60;99.90;;;;;;5091316;28;20074;-64
2023/10/27 00:26:03;;;;;;;27.45;6.05;;;15.60;99.90;;;;;;5108104;28;20489;-63
2023/10/27 00:28:29;;;;;;;25.55;5.82;;;15.70;99.90;;;;;;5111421;28;20052;-64
2023/10/27 00:30:55;;;;;;;21.50;5.40;;;15.90;99.90;;;;;;5111917;28;20420;-64
2023/10/27 00:33:22;;;;;;;20.00;4.68;;;16.00;99.90;;;;;;5111171;28;20097;-64
2023/10/27 00:35:52;;;;;;;16.33;4.38;;;16.00;99.90;;;;;;5111412;28;20443;-64
2023/10/27 00:38:18;;;;;;;17.00;4.65;;;16.10;99.90;;;;;;5111549;28;20038;-64
2023/10/27 00:40:44;;;;;;;17.73;4.43;;;16.00;99.90;;;;;;5111385;28;20107;-64
2023/10/27 00:43:15;;;;;;;18.60;4.65;;;15.80;99.90;;;;;;5111375;28;20020;-64
2023/10/27 00:45:41;;;;;;;17.85;4.72;;;15.70;99.90;;;;;;5111195;28;20493;-62
2023/10/27 00:48:07;;;;;;;18.52;4.78;;;15.70;99.90;;;;;;5111173;28;20027;-63
2023/10/27 00:50:33;;;;;;;20.25;4.38;;;15.60;99.90;;;;;;5111749;28;20032;-64
2023/10/27 00:52:59;;;;;;;19.50;4.82;;;15.50;99.90;;;;;;5111329;28;20016;-63
2023/10/27 00:55:25;;;;;;;23.77;5.22;;;15.50;99.90;;;;;;5093034;28;20023;-63
2023/10/27 00:57:52;;;;;;;21.45;5.45;;;15.50;99.90;;;;;;5111627;28;20020;-63
2023/10/27 01:00:18;;;;;;;21.15;4.95;;;15.40;99.90;;;;;;5092854;28;20078;-63
2023/10/27 01:02:43;;;;;;;21.15;4.55;;;15.40;99.90;;;;;;5114764;28;20058;-63
2023/10/27 01:05:09;;;;;;;21.02;4.18;;;15.40;99.90;;;;;;5115270;28;20405;-63
2023/10/27 01:07:35;;;;;;;17.50;4.45;;;15.30;99.90;;;;;;5115024;28;20055;-62
2023/10/27 01:10:02;;;;;;;22.13;4.95;;;15.30;99.90;;;;;;5115259;28;20478;-64
2023/10/27 01:12:27;;;;;;;19.35;4.32;;;15.30;99.90;;;;;;5115353;28;20098;-64
2023/10/27 01:14:53;;;;;;;17.48;4.00;;;15.20;99.90;;;;;;5115017;28;20040;-63
2023/10/27 01:17:19;;;;;;;22.25;5.03;;;15.30;99.90;;;;;;5114893;28;20502;-63
2023/10/27 01:19:45;;;;;;;21.83;5.22;;;15.30;99.90;;;;;;5114889;28;20180;-63
2023/10/27 01:22:14;;;;;;;20.42;5.30;;;15.30;99.90;;;;;;5114731;28;20016;-64
2023/10/27 01:24:41;;;;;;;21.25;4.95;;;15.30;99.90;;;;;;5109662;28;20100;-63
2023/10/27 01:27:06;;;;;;;18.60;4.47;;;15.30;99.90;;;;;;5094462;28;20036;-64
2023/10/27 01:29:32;;;;;;;14.65;3.50;;;15.30;99.90;;;;;;5079503;28;20052;-64
2023/10/27 01:31:58;;;;;;;15.80;4.20;;;15.20;99.90;;;;;;5073551;28;20150;-63
2023/10/27 01:34:23;;;;;;;17.35;4.18;;;15.10;99.90;;;;;;5073969;28;20032;-63
2023/10/27 01:36:49;;;;;;;20.80;4.75;;;15.10;99.90;;;;;;5074265;28;20031;-64
2023/10/27 01:39:15;;;;;;;21.63;5.38;;;15.10;99.90;;;;;;5073753;28;20470;-63
2023/10/27 01:41:41;;;;;;;20.33;5.18;;;15.10;99.90;;;;;;5073931;28;20029;-64
2023/10/27 01:44:08;;;;;;;20.88;5.63;;;15.10;99.90;;;;;;5073934;28;20042;-64
2023/10/27 01:46:33;;;;;;;23.00;5.28;;;15.10;99.90;;;;;;5073238;28;20040;-64
2023/10/27 01:48:59;;;;;;;23.42;5.57;;;15.20;99.90;;;;;;5074106;28;20021;-63
2023/10/27 01:51:25;;;;;;;20.50;4.85;;;15.50;99.90;;;;;;5073729;28;20085;-64
2023/10/27 01:53:50;;;;;;;25.08;5.30;;;15.80;99.90;;;;;;5073691;28;20020;-64
2023/10/27 01:56:16;;;;;;;21.38;6.13;;;15.90;99.90;;;;;;5073765;28;20103;-62
2023/10/27 01:58:44;;;;;;;22.65;5.10;;;16.10;99.90;;;;;;5073583;28;20471;-64
2023/10/27 02:01:11;;;;;;;23.50;4.95;;;16.10;99.90;;;;;;5073239;28;20036;-63
2023/10/27 02:03:37;;;;;;;24.13;6.45;;;16.00;99.90;;;;;;5073515;28;20877;-64
2023/10/27 02:06:03;;;;;;;27.40;6.18;;;16.20;99.90;;;;;;5073833;28;20033;-64
2023/10/27 02:08:28;;;;;;;22.95;6.25;;;16.20;99.90;;;;;;5073463;28;20025;-63
2023/10/27 02:10:54;;;;;;;21.67;5.30;;;16.10;99.90;;;;;;5073330;28;20028;-64
2023/10/27 02:13:20;;;;;;;21.98;5.95;;;16.10;99.90;;;;;;5072588;28;20039;-64
2023/10/27 02:15:46;;;;;;;21.17;5.65;;;16.20;99.90;;;;;;5072872;28;20443;-63
2023/10/27 02:18:11;;;;;;;25.38;5.93;;;16.30;99.90;;;;;;5073634;28;20044;-64
2023/10/27 02:20:37;;;;;;;25.98;5.57;;;16.20;99.90;;;;;;5072910;28;20040;-63
2023/10/27 02:23:02;;;;;;;27.92;5.97;;;16.10;99.90;;;;;;5073401;28;20430;-63
2023/10/27 02:25:28;;;;;;;22.92;6.05;;;16.00;99.90;;;;;;5073031;28;20029;-64
2023/10/27 02:27:54;;;;;;;22.58;6.22;;;15.90;99.90;;;;;;5073841;28;20079;-63
2023/10/27 02:30:20;;;;;;;24.48;5.38;;;15.70;99.90;;;;;;5092913;28;20028;-63
2023/10/27 02:32:45;;;;;;;22.02;5.30;;;15.60;99.90;;;;;;5093379;28;20030;-64
2023/10/27 02:35:11;;;;;;;28.33;5.82;;;15.50;99.90;;;;;;5093302;28;20028;-63
2023/10/27 02:37:37;;;;;;;24.02;5.80;;;15.40;99.90;;;;;;5093030;28;20032;-62
2023/10/27 02:40:03;;;;;;;26.05;5.75;;;15.40;99.90;;;;;;5093137;28;20119;-64
2023/10/27 02:42:28;;;;;;;26.20;6.43;;;15.40;99.90;;;;;;5092877;28;20077;-64
2023/10/27 02:44:54;;;;;;;21.35;5.43;;;15.40;99.90;;;;;;5092509;28;20486;-63
2023/10/27 02:47:19;;;;;;;27.50;6.72;;;15.40;99.90;;;;;;5093042;28;20082;-63
2023/10/27 02:49:45;;;;;;;24.17;5.32;;;15.40;99.90;;;;;;5074901;28;20453;-64
2023/10/27 02:52:11;;;;;;;27.27;5.97;;;15.40;99.90;;;;;;5092824;28;20031;-64
2023/10/27 02:54:36;;;;;;;33.60;7.75;;;15.40;99.90;;;;;;5074637;28;20024;-64
2023/10/27 02:57:02;;;;;;;24.20;6.00;;;15.20;99.90;;;;;;5092983;28;20546;-62
2023/10/27 02:59:28;;;;;;;12.98;3.38;;;14.80;99.90;;;;;;5092231;28;20048;-63
2023/10/27 03:01:54;;;;;;;11.60;2.90;;;14.70;99.90;;;;;;5092572;28;20030;-63
2023/10/27 03:04:20;;;;;;;10.40;3.03;;;14.60;99.90;;;;;;5075079;28;20106;-64
2023/10/27 03:06:46;;;;;;;11.65;3.03;;;14.60;99.90;;;;;;5092510;28;20549;-63
2023/10/27 03:09:11;;;;;;;13.43;3.78;;;14.50;99.90;;;;;;5092319;28;20095;-64
2023/10/27 03:11:37;;;;;;;17.98;4.45;;;14.50;99.90;;;;;;5092329;28;20040;-63
2023/10/27 03:14:03;;;;;;;18.17;4.82;;;14.60;99.90;;;;;;5092064;28;20020;-64
2023/10/27 03:16:28;;;;;;;17.50;4.05;;;14.70;99.90;;;;;;5092662;28;20032;-63
2023/10/27 03:18:55;;;;;;;16.95;4.30;;;14.70;99.90;;;;;;5092285;28;20419;-64
2023/10/27 03:21:21;;;;;;;17.58;4.57;;;14.80;99.90;;;;;;5092372;28;20307;-63
2023/10/27 03:23:47;;;;;;;18.70;4.28;;;14.90;99.90;;;;;;5091727;28;20028;-63
2023/10/27 03:26:12;;;;;;;21.75;4.93;;;14.90;99.90;;;;;;5091362;28;20028;-63
2023/10/27 03:28:38;;;;;;;18.88;4.72;;;15.00;99.90;;;;;;5091766;28;20548;-63
2023/10/27 03:31:04;;;;;;;21.67;5.75;;;15.30;99.90;;;;;;5092070;28;20024;-63
2023/10/27 03:33:29;;;;;;;21.67;4.85;;;15.50;99.90;;;;;;5091915;28;20028;-64
2023/10/27 03:35:55;;;;;;;20.58;5.22;;;15.70;99.90;;;;;;5091921;28;20028;-63
2023/10/27 03:38:21;;;;;;;18.55;4.30;;;16.00;99.90;;;;;;5092374;28;20019;-64
2023/10/27 03:40:48;;;;;;;14.60;4.38;;;16.20;99.90;;;;;;5091773;28;20038;-63
2023/10/27 03:43:14;;;;;;;18.65;4.72;;;16.10;99.90;;;;;;5091493;28;20035;-63
2023/10/27 03:45:40;;;;;;;19.73;4.47;;;16.20;99.90;;;;;;5091901;28;20443;-64
2023/10/27 03:48:06;;;;;;;15.35;4.07;;;16.10;99.90;;;;;;5091893;28;20056;-63
2023/10/27 03:50:31;;;;;;;13.00;3.67;;;16.30;99.90;;;;;;5091558;28;20150;-64
2023/10/27 03:52:58;;;;;;;18.20;4.80;;;16.30;99.90;;;;;;5091624;28;20059;-64
2023/10/27 03:55:24;;;;;;;14.60;4.00;;;16.30;99.90;;;;;;5091418;28;20028;-64
2023/10/27 03:57:52;;;;;;;16.33;4.22;;;16.20;99.90;;;;;;5091522;28;20022;-63
2023/10/27 04:00:18;;;;;;;16.27;4.88;;;16.20;99.90;;;;;;5091329;28;20043;-64
2023/10/27 04:02:45;;;;;;;21.63;4.68;;;16.20;99.90;;;;;;5091606;28;20103;-64
2023/10/27 04:05:11;;;;;;;20.67;4.40;;;16.00;99.90;;;;;;5091562;28;20023;-63
2023/10/27 04:07:36;;;;;;;18.08;4.88;;;15.80;99.90;;;;;;5091488;28;20024;-63
2023/10/27 04:10:02;;;;;;;16.83;4.00;;;15.70;99.90;;;;;;5091384;28;20036;-64
2023/10/27 04:12:28;;;;;;;18.25;4.50;;;15.60;99.90;;;;;;5072767;28;20062;-64
2023/10/27 04:14:54;;;;;;;15.45;3.75;;;15.60;99.90;;;;;;5091286;28;20131;-64
2023/10/27 04:17:20;;;;;;;14.32;4.32;;;15.50;99.90;;;;;;5091216;28;20034;-63
2023/10/27 04:19:45;;;;;;;17.30;4.25;;;15.50;99.90;;;;;;5091248;28;20111;-64
2023/10/27 04:22:11;;;;;;;15.90;4.05;;;15.40;99.90;;;;;;5091354;28;20490;-63
2023/10/27 04:24:37;;;;;;;19.58;4.80;;;15.30;99.90;;;;;;5086132;28;20398;-63
2023/10/27 04:27:03;;;;;;;20.40;4.43;;;15.30;99.90;;;;;;5070736;28;20028;-64
2023/10/27 04:29:29;;;;;;;14.35;3.83;;;15.30;99.90;;;;;;5066980;28;20403;-63
2023/10/27 04:31:54;;;;;;;15.07;3.95;;;15.20;99.90;;;;;;5091462;28;20032;-64
2023/10/27 04:34:20;;;;;;;16.70;3.72;;;15.30;99.90;;;;;;5091179;28;20024;-63
2023/10/27 04:36:47;;;;;;;11.27;3.13;;;15.20;99.90;;;;;;5093443;28;20028;-64
2023/10/27 04:39:12;;;;;;;10.68;2.83;;;15.10;99.90;;;;;;5095382;28;20153;-64
2023/10/27 04:41:38;;;;;;;11.48;3.08;;;15.10;99.90;;;;;;5095066;28;20060;-63
2023/10/27 04:44:04;;;;;;;10.68;3.13;;;15.10;99.90;;;;;;5095308;28;20031;-63
2023/10/27 04:46:29;;;;;;;8.50;2.78;;;15.10;99.90;;;;;;5095360;28;20066;-63
2023/10/27 04:48:58;;;;;;;9.57;2.90;;;15.00;99.90;;;;;;5095599;28;20035;-64
2023/10/27 04:51:26;;;;;;;9.90;2.90;;;15.00;99.90;;;;;;5095146;28;20016;-63
2023/10/27 04:53:52;;;;;;;13.48;3.63;;;15.00;99.90;;;;;;5094973;28;20162;-63
2023/10/27 04:56:17;;;;;;;11.13;3.28;;;15.00;99.90;;;;;;5094815;28;20107;-64
2023/10/27 04:58:44;;;;;;;13.75;3.55;;;15.10;99.90;;;;;;5095055;28;20036;-64
2023/10/27 05:01:11;;;;;;;10.77;3.35;;;15.10;99.90;;;;;;5094801;28;20039;-63
2023/10/27 05:03:37;;;;;;;15.55;3.50;;;15.10;99.90;;;;;;5094839;28;20552;-64
2023/10/27 05:06:09;;;;;;;13.05;3.17;;;15.10;99.90;;;;;;5094932;28;20107;-64
2023/10/27 05:08:35;;;;;;;13.27;3.50;;;15.20;99.90;;;;;;5094565;28;20020;-63
2023/10/27 05:11:01;;;;;;;14.93;3.92;;;15.40;99.90;;;;;;5095102;28;20353;-64
2023/10/27 05:13:26;;;;;;;16.63;4.07;;;15.70;99.90;;;;;;5094882;28;20078;-63
2023/10/27 05:15:54;;;;;;;13.85;3.50;;;15.80;99.90;;;;;;5094553;28;20401;-64
2023/10/27 05:18:19;;;;;;;10.13;3.88;;;15.90;99.90;;;;;;5094963;28;20103;-63
2023/10/27 05:20:45;;;;;;;13.07;3.20;;;16.00;99.90;;;;;;5094527;28;20122;-63
2023/10/27 05:23:11;;;;;;;15.23;3.63;;;16.10;99.90;;;;;;5094104;28;20024;-64
2023/10/27 05:25:36;;;;;;;11.65;3.53;;;16.20;99.90;;;;;;5107869;28;20088;-64
2023/10/27 05:28:02;;;;;;;13.07;3.90;;;16.30;99.90;;;;;;5114853;28;20082;-64
2023/10/27 05:30:28;;;;;;;13.82;3.30;;;16.30;99.90;;;;;;5114935;28;20115;-64
2023/10/27 05:32:53;;;;;;;12.80;3.17;;;16.30;99.90;;;;;;5114733;28;20107;-64
2023/10/27 05:35:19;;;;;;;16.00;3.67;;;16.40;99.90;;;;;;5114840;28;20059;-64
2023/10/27 05:37:44;;;;;;;15.63;4.28;;;16.30;99.90;;;;;;5096236;28;20049;-63
2023/10/27 05:40:11;;;;;;;14.90;3.90;;;16.30;99.90;;;;;;5114974;28;20043;-64
2023/10/27 05:42:36;;;;;;;17.88;4.35;;;16.10;99.90;;;;;;5114494;28;20031;-64
2023/10/27 05:45:02;;;;;;;10.35;3.22;;;15.70;99.90;;;;;;5114679;28;20042;-64
2023/10/27 05:47:28;;;;;;;9.93;3.10;;;15.30;99.90;;;;;;5113319;28;20024;-64
2023/10/27 05:49:55;;;;;;;10.68;3.08;;;15.00;99.90;;;;;;5114469;28;20393;-64
2023/10/27 05:52:21;;;;;;;10.57;2.67;;;14.90;99.90;;;;;;5114023;28;20031;-64
2023/10/27 05:54:46;;;;;;;12.60;2.75;;;14.70;99.90;;;;;;5114596;28;20027;-64
2023/10/27 05:57:12;;;;;;;11.60;3.03;;;14.60;99.90;;;;;;5114326;28;20027;-64
2023/10/27 05:59:38;;;;;;;11.55;2.83;;;14.50;99.90;;;;;;5114210;28;20028;-64
2023/10/27 06:02:03;;;;;;;12.93;2.67;;;14.30;99.90;;;;;;5114379;28;20019;-64
2023/10/27 06:04:29;;;;;;;13.40;3.05;;;14.30;99.90;;;;;;5114496;28;20172;-63
2023/10/27 06:06:55;;;;;;;14.25;3.10;;;14.20;99.90;;;;;;5095710;28;20024;-64
2023/10/27 06:09:20;;;;;;;12.45;3.50;;;14.20;99.90;;;;;;5114233;28;20359;-64
2023/10/27 06:11:46;;;;;;;15.60;3.15;;;14.10;99.90;;;;;;5095936;28;20478;-63
2023/10/27 06:14:11;;;;;;;11.00;3.03;;;14.10;99.90;;;;;;5113934;28;20020;-64
2023/10/27 06:16:37;;;;;;;11.20;3.25;;;14.00;99.90;;;;;;5114128;28;20035;-64
2023/10/27 06:19:03;;;;;;;15.10;3.47;;;14.00;99.90;;;;;;5113632;28;20378;-64
2023/10/27 06:21:29;;;;;;;14.20;3.25;;;13.90;99.90;;;;;;5113935;28;20031;-63
2023/10/27 06:23:55;;;;;;;10.80;3.08;;;13.80;99.90;;;;;;5113677;28;20027;-63
2023/10/27 06:26:20;;;;;;;12.13;3.00;;;13.70;99.90;;;;;;5094321;28;20066;-64
2023/10/27 06:28:46;;;;;;;11.45;2.65;;;13.70;99.90;;;;;;5092061;28;20048;-62
2023/10/27 06:31:12;;;;;;;12.30;3.05;;;13.60;99.90;;;;;;5093170;28;20501;-64
2023/10/27 06:33:38;;;;;;;12.05;2.75;;;13.60;99.90;;;;;;5093290;28;20035;-62
2023/10/27 06:36:04;;;;;;;10.02;2.90;;;13.60;99.90;;;;;;5092241;28;20115;-64
2023/10/27 06:38:30;;;;;;;9.57;2.60;;;13.50;99.90;;;;;;5093083;28;20032;-63
2023/10/27 06:40:56;;;;;;;9.05;2.22;;;13.50;99.90;;;;;;5091860;28;20085;-63
2023/10/27 06:43:21;;;;;;;10.50;2.65;;;13.40;99.90;;;;;;5093027;28;20098;-63
2023/10/27 06:45:47;;;;;;;8.55;2.50;;;13.40;99.90;;;;;;5093001;28;20039;-63
2023/10/27 06:48:13;;;;;;;8.68;2.47;;;13.50;99.90;;;;;;5093113;28;20028;-63
2023/10/27 06:50:38;;;;;;;9.50;3.05;;;13.70;99.90;;;;;;5092584;28;20024;-64
2023/10/27 06:53:04;;;;;;;11.18;3.22;;;13.80;99.90;;;;;;5092705;28;20495;-62
2023/10/27 06:55:30;;;;;;;10.23;3.28;;;14.00;99.90;;;;;;5092809;28;20027;-64
2023/10/27 06:57:56;;;;;;;7.93;2.45;;;14.10;99.90;;;;;;5092912;28;20481;-63
2023/10/27 07:00:21;;;;;;;10.40;3.10;;;14.00;99.90;;;;;;5092826;28;20036;-63
2023/10/27 07:02:48;;;;;;;11.52;3.10;;;14.10;99.90;;;;;;5092514;28;20032;-63
2023/10/27 07:05:16;;;;;;;11.57;3.35;;;14.20;99.90;;;;;;5092389;28;20024;-63
2023/10/27 07:07:45;;;;;;;11.45;2.88;;;14.30;99.90;;;;;;5093009;28;20020;-63
2023/10/27 07:10:14;;;;;;;14.65;4.10;;;14.30;99.90;;;;;;5074473;28;20024;-64
2023/10/27 07:12:39;;;;;;;11.82;3.85;;;14.30;99.90;;;;;;5092480;28;20112;-63
2023/10/27 07:15:05;;;;;;;10.95;3.35;;;14.40;99.90;;;;;;5091245;28;20103;-64
2023/10/27 07:17:31;;;;;;;12.77;4.07;;;14.30;99.90;;;;;;5092314;28;20036;-63
2023/10/27 07:19:57;;;;;;;15.23;4.22;;;14.20;99.90;;;;;;5091673;28;20457;-63
2023/10/27 07:22:22;;;;;;;14.30;3.95;;;14.10;99.90;;;;;;5092361;28;20024;-64
2023/10/27 07:24:48;;;;;;;13.43;3.88;;;14.10;99.90;;;;;;5091965;28;20032;-64
2023/10/27 07:27:14;;;;;;;15.05;3.70;;;14.00;99.90;;;;;;5092367;28;20020;-64
2023/10/27 07:29:39;;;;;;;14.80;3.35;;;14.00;99.90;;;;;;5092007;28;20048;-64
2023/10/27 07:32:05;;;;;;;13.57;3.78;;;14.00;99.90;;;;;;5092103;28;20039;-62
2023/10/27 07:34:31;;;;;;;14.15;4.00;;;14.00;99.90;;;;;;5091754;28;20103;-63
2023/10/27 07:36:57;;;;;;;15.02;3.80;;;14.00;99.90;;;;;;5092013;28;20020;-64
2023/10/27 07:39:23;;;;;;;12.48;3.85;;;14.00;99.90;;;;;;5092289;28;20039;-63
2023/10/27 07:41:51;;;;;;;16.20;4.15;;;14.00;99.90;;;;;;5091945;28;20024;-63
2023/10/27 07:44:16;;;;;;;16.30;4.20;;;14.00;99.90;;;;;;5092094;28;20032;-63
2023/10/27 07:46:42;;;;;;;15.57;4.30;;;14.00;99.90;;;;;;5091904;28;20024;-63
2023/10/27 07:49:08;;;;;;;20.05;4.32;;;14.00;99.90;;;;;;5091563;28;20165;-62
2023/10/27 07:51:33;;;;;;;17.70;4.00;;;14.00;99.90;;;;;;5091843;28;20032;-61
2023/10/27 07:53:59;;;;;;;16.38;4.30;;;14.00;99.90;;;;;;5092087;28;20028;-63
2023/10/27 07:56:25;;;;;;;15.05;4.05;;;14.00;99.90;;;;;;5091838;28;20562;-63
2023/10/27 07:58:51;;;;;;;13.38;4.03;;;14.10;99.90;;;;;;5091701;28;20020;-63
2023/10/27 08:01:17;;;;;;;16.65;3.92;;;14.10;99.90;;;;;;5091364;28;20042;-63
2023/10/27 08:03:45;;;;;;;21.02;4.18;;;14.20;99.90;;;;;;5091485;28;20024;-63
2023/10/27 08:06:11;;;;;;;19.77;4.65;;;14.20;99.90;;;;;;5091826;28;20051;-63
2023/10/27 08:08:37;;;;;;;15.70;4.97;;;14.30;99.90;;;;;;5091603;28;20062;-63
2023/10/27 08:11:04;;;;;;;25.13;12.38;;;14.30;99.90;;;;;;5090942;28;20024;-62
2023/10/27 08:13:31;;;;;;;21.55;7.97;;;14.30;99.90;;;;;;5091393;28;20037;-62
2023/10/27 08:15:59;;;;;;;18.20;4.95;;;14.30;99.90;;;;;;5091769;28;20020;-63
2023/10/27 08:18:24;;;;;;;19.27;5.20;;;14.30;99.90;;;;;;5091119;28;20027;-63
2023/10/27 08:20:53;;;;;;;15.35;4.25;;;14.30;99.90;;;;;;5091317;28;20028;-62
2023/10/27 08:23:20;;;;;;;18.50;4.88;;;14.30;99.90;;;;;;5091250;28;20074;-62
2023/10/27 08:25:54;;;;;;;17.52;4.30;;;14.30;99.90;;;;;;5091466;28;20032;-62
2023/10/27 08:28:20;;;;;;;21.02;4.55;;;14.30;99.90;;;;;;5091317;28;20119;-63
2023/10/27 08:30:48;;;;;;;14.63;4.38;;;14.40;99.90;;;;;;5091161;28;20074;-62
2023/10/27 08:33:14;;;;;;;16.25;4.10;;;14.60;99.90;;;;;;5090851;28;20106;-62
2023/10/27 08:35:40;;;;;;;15.70;4.05;;;14.70;99.90;;;;;;5091490;28;20035;-63
2023/10/27 08:38:06;;;;;;;13.18;4.38;;;14.80;99.90;;;;;;5091188;28;20097;-62
2023/10/27 08:40:32;;;;;;;14.70;4.20;;;14.90;99.90;;;;;;5091270;28;20122;-63
2023/10/27 08:42:59;;;;;;;13.88;3.88;;;15.00;99.90;;;;;;5090970;28;20052;-63
2023/10/27 08:45:25;;;;;;;13.40;3.58;;;15.10;99.90;;;;;;5091138;28;20031;-61
2023/10/27 08:47:53;;;;;;;17.58;4.35;;;15.10;99.90;;;;;;5090547;28;20073;-63
2023/10/27 08:50:18;;;;;;;16.38;4.10;;;15.20;99.90;;;;;;5091111;28;20024;-63
2023/10/27 08:52:45;;;;;;;14.65;4.30;;;15.20;99.90;;;;;;5091241;28;20111;-64
2023/10/27 08:55:11;;;;;;;17.85;4.47;;;15.20;99.90;;;;;;5091071;28;20035;-63
2023/10/27 08:57:37;;;;;;;16.15;4.30;;;15.10;99.90;;;;;;5091031;28;20024;-63
2023/10/27 09:00:07;;;;;;;18.13;4.38;;;15.00;99.90;;;;;;5091304;28;20048;-63
2023/10/27 09:02:35;;;;;;;19.42;4.53;;;15.00;99.90;;;;;;5090702;28;20024;-65
2023/10/27 09:05:09;;;;;;;21.48;5.13;;;14.90;99.90;;;;;;5091186;28;20055;-64
2023/10/27 09:07:35;;;;;;;23.50;5.97;;;14.60;99.90;;;;;;5090875;28;20032;-65
2023/10/27 09:10:02;;;;;;;21.35;5.28;;;14.40;99.90;;;;;;5091335;28;20039;-64
2023/10/27 09:12:30;;;;;;;25.35;6.05;;;14.10;99.90;;;;;;5091041;28;20437;-64
2023/10/27 09:15:00;;;;;;;37.25;7.30;;;14.00;99.90;;;;;;5090570;28;20028;-63
2023/10/27 09:17:29;;;;;;;30.42;8.07;;;14.00;99.90;;;;;;5091039;28;20028;-64
2023/10/27 09:20:06;;;;;;;32.30;6.72;;;14.00;99.90;;;;;;5090714;28;20032;-64
2023/10/27 09:22:31;;;;;;;31.48;7.50;;;13.90;99.90;;;;;;5092911;28;20506;-64
2023/10/27 09:25:17;;;;;;;28.67;6.13;;;13.90;99.90;;;;;;5094534;28;20042;-64
2023/10/27 09:27:46;;;;;;;29.50;6.68;;;13.90;99.90;;;;;;5094570;28;20048;-64
2023/10/27 09:30:13;;;;;;;28.95;6.28;;;13.90;99.90;;;;;;5094060;28;20052;-64
2023/10/27 09:32:40;;;;;;;28.73;6.80;;;13.90;99.90;;;;;;5094624;28;20024;-64
2023/10/27 09:35:13;;;;;;;26.33;6.05;;;14.00;99.90;;;;;;5094408;28;20052;-63
2023/10/27 09:37:41;;;;;;;24.35;5.75;;;14.00;99.90;;;;;;5094441;28;20020;-64
2023/10/27 09:40:13;;;;;;;28.17;5.82;;;13.90;99.90;;;;;;5094564;28;20553;-65
2023/10/27 09:42:39;;;;;;;26.75;4.85;;;14.00;99.90;;;;;;5094407;28;20461;-65
2023/10/27 09:45:13;;;;;;;22.65;4.53;;;14.00;99.90;;;;;;5093930;28;20109;-65
2023/10/27 09:47:47;;;;;;;21.55;4.53;;;14.00;99.90;;;;;;5094145;28;20039;-65
2023/10/27 09:50:14;;;;;;;;;;;13.90;99.90;;;;;;5094495;28;20494;-65
2023/10/27 09:52:43;;;;;;;28.30;5.10;;;14.00;99.90;;;;;;5094245;28;19919;-63
2023/10/27 09:55:14;;;;;;;23.95;5.28;;;14.00;99.90;;;;;;5094390;28;20532;-64
2023/10/27 09:57:46;;;;;;;24.75;5.13;;;14.00;99.90;;;;;;5093978;28;20077;-63
2023/10/27 10:00:28;;;;;;;27.52;5.82;;;14.10;99.90;;;;;;5093480;28;20044;-65
2023/10/27 10:02:55;;;;;;;20.50;5.28;;;14.10;99.90;;;;;;5093885;28;20028;-63
2023/10/27 10:05:23;;;;;;;28.98;5.75;;;14.00;99.90;;;;;;5094024;28;20386;-64
2023/10/27 10:08:06;;;;;;;23.02;4.97;;;14.00;99.90;;;;;;5093916;28;20029;-64
2023/10/27 10:10:33;;;;;;;20.38;5.07;;;14.00;99.90;;;;;;5094020;28;20030;-64
2023/10/27 10:13:03;;;;;;;23.48;5.22;;;14.20;99.90;;;;;;5093366;28;20028;-64
2023/10/27 10:15:39;;;;;;;16.75;4.40;;;14.40;99.90;;;;;;5093709;28;20494;-64
2023/10/27 10:18:29;;;;;;;21.77;4.97;;;14.60;99.90;;;;;;5093636;28;20028;-64
2023/10/27 10:20:59;;;;;;;19.73;4.22;;;14.80;99.90;;;;;;5079244;28;20126;-65
2023/10/27 10:23:37;;;;;;;19.98;4.57;;;15.00;99.90;;;;;;5093694;28;20027;-64
2023/10/27 10:26:02;;;;;;;20.38;5.15;;;15.10;99.90;;;;;;5093653;28;20036;-64
2023/10/27 10:28:33;;;;;;;20.58;4.35;;;15.20;99.90;;;;;;5091806;28;20609;-64
2023/10/27 10:31:11;;;;;;;21.80;5.15;;;15.30;99.90;;;;;;5093154;28;20031;-65
2023/10/27 10:33:40;;;;;;;20.38;4.60;;;15.30;99.90;;;;;;5092958;28;20039;-64
2023/10/27 10:36:27;;;;;;;19.48;4.70;;;15.40;99.90;;;;;;5093246;28;20016;-64
2023/10/27 10:38:55;;;;;;;17.95;4.97;;;15.50;99.90;;;;;;5092966;28;20406;-64
2023/10/27 10:41:22;;;;;;;21.02;4.95;;;15.60;99.90;;;;;;5093130;28;20032;-64
2023/10/27 10:44:11;;;;;;;13.68;3.75;;;15.70;99.90;;;;;;5092809;28;20105;-64
2023/10/27 10:46:37;;;;;;;12.55;3.42;;;15.60;99.90;;;;;;5092989;28;20547;-63
2023/10/27 10:49:02;;;;;;;14.82;4.03;;;15.40;99.90;;;;;;5093011;28;20036;-64
2023/10/27 10:51:36;;;;;;;12.95;3.80;;;15.20;99.90;;;;;;5093375;28;20024;-63
2023/10/27 10:54:02;;;;;;;10.52;3.28;;;15.20;99.90;;;;;;5092668;28;20035;-63
2023/10/27 10:56:27;;;;;;;11.45;3.33;;;15.10;99.90;;;;;;5092647;28;20040;-63
2023/10/27 10:58:54;;;;;;;9.07;3.05;;;15.00;99.90;;;;;;5092784;28;20020;-64
2023/10/27 11:01:21;;;;;;;13.77;3.42;;;15.00;99.90;;;;;;5093021;28;20040;-62
2023/10/27 11:03:55;;;;;;;11.27;3.60;;;15.10;99.90;;;;;;5092779;28;20020;-63
2023/10/27 11:06:23;;;;;;;10.27;2.75;;;15.10;99.90;;;;;;5092732;28;20024;-63
2023/10/27 11:08:49;;;;;;;10.25;2.70;;;15.10;99.90;;;;;;5092506;28;20032;-64
2023/10/27 11:11:16;;;;;;;12.55;3.60;;;15.10;99.90;;;;;;5092157;28;20063;-64
2023/10/27 11:13:57;;;;;;;10.02;3.63;;;15.20;99.90;;;;;;5092405;28;20461;-64
2023/10/27 11:16:26;;;;;;;8.52;2.85;;;15.20;99.90;;;;;;5092502;28;20034;-63
2023/10/27 11:18:59;;;;;;;12.48;3.92;;;15.20;99.90;;;;;;5092661;28;20099;-64
2023/10/27 11:21:27;;;;;;;11.88;3.60;;;15.20;99.90;;;;;;5092580;28;20032;-62
2023/10/27 11:23:53;;;;;;;13.35;4.00;;;15.30;99.90;;;;;;5092119;28;20039;-63
2023/10/27 11:26:38;;;;;;;11.43;3.05;;;15.40;99.90;;;;;;5110863;28;20111;-63
2023/10/27 11:29:08;;;;;;;15.40;4.10;;;15.50;99.90;;;;;;5112329;28;20114;-62
2023/10/27 11:31:39;;;;;;;14.43;3.83;;;15.50;99.90;;;;;;5112507;28;20069;-63
2023/10/27 11:34:09;;;;;;;15.02;4.10;;;15.60;99.90;;;;;;5112928;28;20115;-62
2023/10/27 11:36:44;;;;;;;12.45;3.75;;;15.60;99.90;;;;;;5112416;28;20031;-63
2023/10/27 11:39:13;;;;;;;15.25;5.55;;;15.70;99.90;;;;;;5112095;28;20054;-64
2023/10/27 11:41:40;;;;;;;13.20;4.40;;;15.70;99.90;;;;;;5111942;28;20033;-62
2023/10/27 11:44:06;;;;;;;14.48;4.40;;;15.70;99.90;;;;;;5112679;28;20024;-62
2023/10/27 11:46:33;;;;;;;16.83;4.30;;;15.80;99.90;;;;;;5111308;28;20038;-62
2023/10/27 11:48:59;;;;;;;17.67;5.22;;;15.80;99.90;;;;;;5112085;28;20073;-63
2023/10/27 11:51:24;;;;;;;18.48;4.85;;;16.00;99.90;;;;;;5111873;28;20063;-63
2023/10/27 11:53:51;;;;;;;18.85;4.85;;;16.00;99.90;;;;;;5111877;28;20031;-62
2023/10/27 11:56:17;;;;;;;18.33;4.45;;;16.20;99.90;;;;;;5111794;28;20035;-63
2023/10/27 11:58:43;;;;;;;16.73;4.90;;;16.50;99.90;;;;;;5111957;28;20023;-63
2023/10/27 12:01:09;;;;;;;16.40;4.75;;;16.70;99.90;;;;;;5112274;28;20096;-63
2023/10/27 12:03:35;;;;;;;16.27;3.58;;;16.80;99.90;;;;;;5111631;28;20024;-63
2023/10/27 12:06:01;;;;;;;11.68;3.72;;;16.70;99.90;;;;;;5112304;28;20065;-61
2023/10/27 12:08:26;;;;;;;14.02;4.28;;;16.70;99.90;;;;;;5111396;28;20391;-63
2023/10/27 12:10:52;;;;;;;15.35;4.13;;;16.50;99.90;;;;;;5110506;28;20038;-63
2023/10/27 12:13:20;;;;;;;14.43;4.25;;;16.60;99.90;;;;;;5111309;28;20035;-63
2023/10/27 12:15:47;;;;;;;14.95;4.43;;;16.80;99.90;;;;;;5111332;28;20048;-61
2023/10/27 12:18:14;;;;;;;14.15;3.92;;;16.90;99.90;;;;;;5111545;28;20525;-62
2023/10/27 12:20:40;;;;;;;17.08;4.93;;;17.00;99.90;;;;;;5111828;28;20036;-63
2023/10/27 12:23:09;;;;;;;15.50;3.95;;;17.00;99.90;;;;;;5111686;28;20020;-62
2023/10/27 12:25:35;;;;;;;17.20;5.47;;;17.00;99.90;;;;;;5098465;28;20024;-62
2023/10/27 12:28:02;;;;;;;16.90;4.75;;;17.10;99.90;;;;;;5091549;28;20024;-64
2023/10/27 12:30:28;;;;;;;14.77;4.43;;;17.10;99.90;;;;;;5091041;28;20047;-63
2023/10/27 12:32:53;;;;;;;13.35;4.38;;;16.90;99.90;;;;;;5091151;28;20024;-62
2023/10/27 12:35:22;;;;;;;14.65;3.92;;;16.80;99.90;;;;;;5091280;28;20035;-63
2023/10/27 12:37:54;;;;;;;14.27;4.38;;;16.80;99.90;;;;;;5090583;28;20094;-63